sensor_id;sensor_type;location;lat;lon;timestamp;temperature;humidity
48206;DHT22;33995;48.202;16.260;2023-04-03T00:01:52;7.40;99.90
48206;DHT22;33995;48.202;16.260;2023-04-03T00:04:23;7.30;99.90
48206;DHT22;33995;48.202;16.260;2023-04-03T00:06:54;7.30;99.90
48206;DHT22;33995;48.202;16.260;2023-04-03T00:09:31;7.30;99.90
48206;DHT22;33995;48.202;16.260;2023-04-03T00:12:02;7.30;99.90
48206;DHT22;33995;48.202;16.260;2023-04-03T00:14:33;7.30;99.90
48206;DHT22;33995;48.202;16.260;2023-04-03T00:17:03;7.20;99.90
48206;DHT22;33995;48.202;16.260;2023-04-03T00:19:35;7.10;99.90
48206;DHT22;33995;48.202;16.260;2023-04-03T00:22:06;7.20;99.90
48206;DHT22;33995;48.202;16.260;2023-04-03T00:24:42;7.30;99.90
48206;DHT22;33995;48.202;16.260;2023-04-03T00:27:13;7.20;99.90
48206;DHT22;33995;48.202;16.260;2023-04-03T00:29:44;7.20;99.90
48206;DHT22;33995;48.202;16.260;2023-04-03T00:32:13;7.10;99.90
48206;DHT22;33995;48.202;16.260;2023-04-03T00:34:44;7.20;99.90
48206;DHT22;33995;48.202;16.260;2023-04-03T00:37:13;7.30;99.90
48206;DHT22;33995;48.202;16.260;2023-04-03T00:39:43;7.20;99.90
48206;DHT22;33995;48.202;16.260;2023-04-03T00:42:13;7.30;99.90
48206;DHT22;33995;48.202;16.260;2023-04-03T00:47:29;7.20;99.90
48206;DHT22;33995;48.202;16.260;2023-04-03T00:50:02;7.10;99.90
48206;DHT22;33995;48.202;16.260;2023-04-03T00:52:39;7.20;99.90
48206;DHT22;33995;48.202;16.260;2023-04-03T00:55:11;7.10;99.90
48206;DHT22;33995;48.202;16.260;2023-04-03T00:57:45;7.10;99.90
48206;DHT22;33995;48.202;16.260;2023-04-03T01:00:23;7.00;99.90
48206;DHT22;33995;48.202;16.260;2023-04-03T01:02:53;7.00;99.90
48206;DHT22;33995;48.202;16.260;2023-04-03T01:05:26;7.10;99.90
48206;DHT22;33995;48.202;16.260;2023-04-03T01:07:56;7.00;99.90
48206;DHT22;33995;48.202;16.260;2023-04-03T01:10:29;6.90;99.90
48206;DHT22;33995;48.202;16.260;2023-04-03T01:13:02;7.00;99.90
48206;DHT22;33995;48.202;16.260;2023-04-03T01:15:45;7.00;99.90
48206;DHT22;33995;48.202;16.260;2023-04-03T01:18:12;7.00;99.90
48206;DHT22;33995;48.202;16.260;2023-04-03T01:21:37;6.90;99.90
48206;DHT22;33995;48.202;16.260;2023-04-03T01:24:32;6.90;99.90
48206;DHT22;33995;48.202;16.260;2023-04-03T01:27:09;7.00;99.90
48206;DHT22;33995;48.202;16.260;2023-04-03T01:29:45;7.00;99.90
48206;DHT22;33995;48.202;16.260;2023-04-03T01:32:16;6.90;99.90
48206;DHT22;33995;48.202;16.260;2023-04-03T01:34:50;6.90;99.90
48206;DHT22;33995;48.202;16.260;2023-04-03T01:37:17;6.90;99.90
48206;DHT22;33995;48.202;16.260;2023-04-03T01:39:48;6.90;99.90
48206;DHT22;33995;48.202;16.260;2023-04-03T01:42:16;7.00;99.90
48206;DHT22;33995;48.202;16.260;2023-04-03T01:44:45;7.10;99.90
48206;DHT22;33995;48.202;16.260;2023-04-03T01:47:18;7.00;99.90
48206;DHT22;33995;48.202;16.260;2023-04-03T01:49:49;7.00;99.90
48206;DHT22;33995;48.202;16.260;2023-04-03T01:52:20;7.00;99.90
48206;DHT22;33995;48.202;16.260;2023-04-03T01:54:52;6.90;99.90
48206;DHT22;33995;48.202;16.260;2023-04-03T01:57:22;6.90;99.90
48206;DHT22;33995;48.202;16.260;2023-04-03T01:59:57;7.00;99.90
48206;DHT22;33995;48.202;16.260;2023-04-03T02:02:27;7.00;99.90
48206;DHT22;33995;48.202;16.260;2023-04-03T02:04:57;6.90;99.90
48206;DHT22;33995;48.202;16.260;2023-04-03T02:07:28;6.90;99.90
48206;DHT22;33995;48.202;16.260;2023-04-03T02:10:00;6.80;99.90
48206;DHT22;33995;48.202;16.260;2023-04-03T02:12:31;6.80;99.90
48206;DHT22;33995;48.202;16.260;2023-04-03T02:15:02;6.70;99.90
48206;DHT22;33995;48.202;16.260;2023-04-03T02:17:39;6.80;99.90
48206;DHT22;33995;48.202;16.260;2023-04-03T02:20:10;6.70;99.90
48206;DHT22;33995;48.202;16.260;2023-04-03T02:22:44;6.70;99.90
48206;DHT22;33995;48.202;16.260;2023-04-03T02:25:15;6.60;99.90
48206;DHT22;33995;48.202;16.260;2023-04-03T02:27:47;6.60;99.90
48206;DHT22;33995;48.202;16.260;2023-04-03T02:30:17;6.70;99.90
48206;DHT22;33995;48.202;16.260;2023-04-03T02:32:48;6.60;99.90
48206;DHT22;33995;48.202;16.260;2023-04-03T02:35:16;6.60;99.90
48206;DHT22;33995;48.202;16.260;2023-04-03T02:37:50;6.70;99.90
48206;DHT22;33995;48.202;16.260;2023-04-03T02:40:32;6.70;99.90
48206;DHT22;33995;48.202;16.260;2023-04-03T02:43:00;6.60;99.90
48206;DHT22;33995;48.202;16.260;2023-04-03T02:45:29;6.60;99.90
48206;DHT22;33995;48.202;16.260;2023-04-03T02:47:59;6.70;99.90
48206;DHT22;33995;48.202;16.260;2023-04-03T02:50:31;6.50;99.90
48206;DHT22;33995;48.202;16.260;2023-04-03T02:53:03;6.50;99.90
48206;DHT22;33995;48.202;16.260;2023-04-03T02:55:36;6.50;99.90
48206;DHT22;33995;48.202;16.260;2023-04-03T02:58:06;6.60;99.90
48206;DHT22;33995;48.202;16.260;2023-04-03T03:00:41;6.50;99.90
48206;DHT22;33995;48.202;16.260;2023-04-03T03:03:13;6.40;99.90
48206;DHT22;33995;48.202;16.260;2023-04-03T03:05:47;6.50;99.90
48206;DHT22;33995;48.202;16.260;2023-04-03T03:08:21;6.50;99.90
48206;DHT22;33995;48.202;16.260;2023-04-03T03:10:52;6.60;99.90
48206;DHT22;33995;48.202;16.260;2023-04-03T03:13:24;6.50;99.90
48206;DHT22;33995;48.202;16.260;2023-04-03T03:15:54;6.60;99.90
48206;DHT22;33995;48.202;16.260;2023-04-03T03:18:24;6.50;99.90
48206;DHT22;33995;48.202;16.260;2023-04-03T03:20:58;6.60;99.90
48206;DHT22;33995;48.202;16.260;2023-04-03T03:23:28;6.60;99.90
48206;DHT22;33995;48.202;16.260;2023-04-03T03:26:07;6.50;99.90
48206;DHT22;33995;48.202;16.260;2023-04-03T03:28:39;6.60;99.90
48206;DHT22;33995;48.202;16.260;2023-04-03T03:31:12;6.70;99.90
48206;DHT22;33995;48.202;16.260;2023-04-03T03:33:45;6.70;99.90
48206;DHT22;33995;48.202;16.260;2023-04-03T03:36:16;6.70;99.90
48206;DHT22;33995;48.202;16.260;2023-04-03T03:38:46;6.70;99.90
48206;DHT22;33995;48.202;16.260;2023-04-03T03:41:16;6.70;99.90
48206;DHT22;33995;48.202;16.260;2023-04-03T03:43:48;6.70;99.90
48206;DHT22;33995;48.202;16.260;2023-04-03T03:46:19;6.70;99.90
48206;DHT22;33995;48.202;16.260;2023-04-03T03:48:56;6.70;99.90
48206;DHT22;33995;48.202;16.260;2023-04-03T03:51:29;6.70;99.90
48206;DHT22;33995;48.202;16.260;2023-04-03T03:54:01;6.70;99.90
48206;DHT22;33995;48.202;16.260;2023-04-03T03:56:29;6.70;99.90
48206;DHT22;33995;48.202;16.260;2023-04-03T03:58:59;6.70;99.90
48206;DHT22;33995;48.202;16.260;2023-04-03T04:01:33;6.70;99.90
48206;DHT22;33995;48.202;16.260;2023-04-03T04:04:05;6.80;99.90
48206;DHT22;33995;48.202;16.260;2023-04-03T04:06:38;6.70;99.90
48206;DHT22;33995;48.202;16.260;2023-04-03T04:09:13;6.70;99.90
48206;DHT22;33995;48.202;16.260;2023-04-03T04:11:43;6.70;99.90
48206;DHT22;33995;48.202;16.260;2023-04-03T04:14:14;6.70;99.90
48206;DHT22;33995;48.202;16.260;2023-04-03T04:16:44;6.50;99.90
48206;DHT22;33995;48.202;16.260;2023-04-03T04:19:21;6.50;99.90
48206;DHT22;33995;48.202;16.260;2023-04-03T04:21:51;6.50;99.90
48206;DHT22;33995;48.202;16.260;2023-04-03T04:24:21;6.60;99.90
48206;DHT22;33995;48.202;16.260;2023-04-03T04:26:54;6.50;99.90
48206;DHT22;33995;48.202;16.260;2023-04-03T04:29:26;6.40;99.90
48206;DHT22;33995;48.202;16.260;2023-04-03T04:31:56;6.40;99.90
48206;DHT22;33995;48.202;16.260;2023-04-03T04:34:30;6.30;99.90
48206;DHT22;33995;48.202;16.260;2023-04-03T04:37:00;6.30;99.90
48206;DHT22;33995;48.202;16.260;2023-04-03T04:39:32;6.20;99.90
48206;DHT22;33995;48.202;16.260;2023-04-03T04:42:04;6.30;99.90
48206;DHT22;33995;48.202;16.260;2023-04-03T04:44:37;6.50;99.90
48206;DHT22;33995;48.202;16.260;2023-04-03T04:47:10;6.50;99.90
48206;DHT22;33995;48.202;16.260;2023-04-03T04:49:40;6.50;99.90
48206;DHT22;33995;48.202;16.260;2023-04-03T04:52:12;6.40;99.90
48206;DHT22;33995;48.202;16.260;2023-04-03T04:54:44;6.20;99.90
48206;DHT22;33995;48.202;16.260;2023-04-03T04:57:16;6.20;99.90
48206;DHT22;33995;48.202;16.260;2023-04-03T04:59:51;6.40;99.90
48206;DHT22;33995;48.202;16.260;2023-04-03T05:02:20;6.50;99.90
48206;DHT22;33995;48.202;16.260;2023-04-03T05:04:53;6.50;99.90
48206;DHT22;33995;48.202;16.260;2023-04-03T05:07:27;6.50;99.90
48206;DHT22;33995;48.202;16.260;2023-04-03T05:09:58;6.60;99.90
48206;DHT22;33995;48.202;16.260;2023-04-03T05:12:30;6.30;99.90
48206;DHT22;33995;48.202;16.260;2023-04-03T05:15:05;6.20;99.90
48206;DHT22;33995;48.202;16.260;2023-04-03T05:17:36;6.20;99.90
48206;DHT22;33995;48.202;16.260;2023-04-03T05:20:14;6.10;99.90
48206;DHT22;33995;48.202;16.260;2023-04-03T05:22:48;6.20;99.90
48206;DHT22;33995;48.202;16.260;2023-04-03T05:25:19;6.10;99.90
48206;DHT22;33995;48.202;16.260;2023-04-03T05:27:48;6.10;99.90
48206;DHT22;33995;48.202;16.260;2023-04-03T05:30:31;6.00;99.90
48206;DHT22;33995;48.202;16.260;2023-04-03T05:33:02;6.00;99.90
48206;DHT22;33995;48.202;16.260;2023-04-03T05:35:43;6.10;99.90
48206;DHT22;33995;48.202;16.260;2023-04-03T05:38:21;6.20;99.90
48206;DHT22;33995;48.202;16.260;2023-04-03T05:41:00;6.30;99.90
48206;DHT22;33995;48.202;16.260;2023-04-03T05:43:29;6.30;99.90
48206;DHT22;33995;48.202;16.260;2023-04-03T05:46:00;6.10;99.90
48206;DHT22;33995;48.202;16.260;2023-04-03T05:48:30;6.10;99.90
48206;DHT22;33995;48.202;16.260;2023-04-03T05:51:05;6.10;99.90
48206;DHT22;33995;48.202;16.260;2023-04-03T05:53:37;6.20;99.90
48206;DHT22;33995;48.202;16.260;2023-04-03T05:56:09;6.20;99.90
48206;DHT22;33995;48.202;16.260;2023-04-03T05:58:43;6.20;99.90
48206;DHT22;33995;48.202;16.260;2023-04-03T06:01:15;6.20;99.90
48206;DHT22;33995;48.202;16.260;2023-04-03T06:03:46;6.10;99.90
48206;DHT22;33995;48.202;16.260;2023-04-03T06:06:18;6.00;99.90
48206;DHT22;33995;48.202;16.260;2023-04-03T06:08:55;6.00;99.90
48206;DHT22;33995;48.202;16.260;2023-04-03T06:11:22;6.00;99.90
48206;DHT22;33995;48.202;16.260;2023-04-03T06:13:51;5.90;99.90
48206;DHT22;33995;48.202;16.260;2023-04-03T06:16:21;5.90;99.90
48206;DHT22;33995;48.202;16.260;2023-04-03T06:18:53;6.00;99.90
48206;DHT22;33995;48.202;16.260;2023-04-03T06:21:24;6.00;99.90
48206;DHT22;33995;48.202;16.260;2023-04-03T06:23:56;6.10;99.90
48206;DHT22;33995;48.202;16.260;2023-04-03T06:26:28;6.10;99.90
48206;DHT22;33995;48.202;16.260;2023-04-03T06:28:59;6.10;99.90
48206;DHT22;33995;48.202;16.260;2023-04-03T06:31:29;6.00;99.90
48206;DHT22;33995;48.202;16.260;2023-04-03T06:34:03;6.10;99.90
48206;DHT22;33995;48.202;16.260;2023-04-03T06:36:31;6.30;99.90
48206;DHT22;33995;48.202;16.260;2023-04-03T06:39:01;6.40;99.90
48206;DHT22;33995;48.202;16.260;2023-04-03T06:41:30;6.20;99.90
48206;DHT22;33995;48.202;16.260;2023-04-03T06:44:03;6.30;99.90
48206;DHT22;33995;48.202;16.260;2023-04-03T06:46:31;6.20;99.90
48206;DHT22;33995;48.202;16.260;2023-04-03T06:49:03;6.30;99.90
48206;DHT22;33995;48.202;16.260;2023-04-03T06:51:34;6.30;99.90
48206;DHT22;33995;48.202;16.260;2023-04-03T06:54:12;6.30;99.90
48206;DHT22;33995;48.202;16.260;2023-04-03T06:56:54;6.10;99.90
48206;DHT22;33995;48.202;16.260;2023-04-03T06:59:31;6.10;99.90
48206;DHT22;33995;48.202;16.260;2023-04-03T07:02:03;6.00;99.90
48206;DHT22;33995;48.202;16.260;2023-04-03T07:04:33;6.20;99.90
48206;DHT22;33995;48.202;16.260;2023-04-03T07:07:01;6.30;99.90
48206;DHT22;33995;48.202;16.260;2023-04-03T07:09:29;6.20;99.90
48206;DHT22;33995;48.202;16.260;2023-04-03T07:12:02;6.40;99.90
48206;DHT22;33995;48.202;16.260;2023-04-03T07:14:33;6.30;99.90
48206;DHT22;33995;48.202;16.260;2023-04-03T07:17:06;6.60;99.90
48206;DHT22;33995;48.202;16.260;2023-04-03T07:19:37;6.70;99.90
48206;DHT22;33995;48.202;16.260;2023-04-03T07:22:09;6.60;99.90
48206;DHT22;33995;48.202;16.260;2023-04-03T07:24:43;6.60;99.90
48206;DHT22;33995;48.202;16.260;2023-04-03T07:27:14;6.40;99.90
48206;DHT22;33995;48.202;16.260;2023-04-03T07:29:44;6.20;99.90
48206;DHT22;33995;48.202;16.260;2023-04-03T07:32:14;6.40;99.90
48206;DHT22;33995;48.202;16.260;2023-04-03T07:34:48;6.20;99.90
48206;DHT22;33995;48.202;16.260;2023-04-03T07:37:18;6.50;99.90
48206;DHT22;33995;48.202;16.260;2023-04-03T07:39:49;6.70;99.90
48206;DHT22;33995;48.202;16.260;2023-04-03T07:42:22;6.60;99.90
48206;DHT22;33995;48.202;16.260;2023-04-03T07:44:53;6.70;99.90
48206;DHT22;33995;48.202;16.260;2023-04-03T07:47:34;6.70;99.90
48206;DHT22;33995;48.202;16.260;2023-04-03T07:50:05;7.00;99.90
48206;DHT22;33995;48.202;16.260;2023-04-03T07:52:38;7.10;99.90
48206;DHT22;33995;48.202;16.260;2023-04-03T07:55:08;7.20;99.90
48206;DHT22;33995;48.202;16.260;2023-04-03T07:57:38;7.40;99.90
48206;DHT22;33995;48.202;16.260;2023-04-03T08:00:07;7.60;99.90
48206;DHT22;33995;48.202;16.260;2023-04-03T08:02:39;7.60;99.90
48206;DHT22;33995;48.202;16.260;2023-04-03T08:05:10;7.30;99.90
48206;DHT22;33995;48.202;16.260;2023-04-03T08:07:48;7.60;99.90
48206;DHT22;33995;48.202;16.260;2023-04-03T08:10:16;7.60;99.90
48206;DHT22;33995;48.202;16.260;2023-04-03T08:12:48;7.30;99.90
48206;DHT22;33995;48.202;16.260;2023-04-03T08:15:18;7.60;99.90
48206;DHT22;33995;48.202;16.260;2023-04-03T08:17:48;7.90;99.90
48206;DHT22;33995;48.202;16.260;2023-04-03T08:20:25;7.90;99.90
48206;DHT22;33995;48.202;16.260;2023-04-03T08:22:55;8.20;99.90
48206;DHT22;33995;48.202;16.260;2023-04-03T08:25:25;8.50;99.90
48206;DHT22;33995;48.202;16.260;2023-04-03T08:27:56;8.50;99.90
48206;DHT22;33995;48.202;16.260;2023-04-03T08:30:30;8.20;99.90
48206;DHT22;33995;48.202;16.260;2023-04-03T08:33:04;8.50;99.90
48206;DHT22;33995;48.202;16.260;2023-04-03T08:35:32;8.90;99.90
48206;DHT22;33995;48.202;16.260;2023-04-03T08:38:15;8.50;99.80
48206;DHT22;33995;48.202;16.260;2023-04-03T08:40:42;8.10;99.90
48206;DHT22;33995;48.202;16.260;2023-04-03T08:43:55;8.30;99.90
48206;DHT22;33995;48.202;16.260;2023-04-03T08:50:05;8.20;99.80
48206;DHT22;33995;48.202;16.260;2023-04-03T08:52:42;8.90;98.80
48206;DHT22;33995;48.202;16.260;2023-04-03T08:55:39;9.10;98.10
48206;DHT22;33995;48.202;16.260;2023-04-03T08:58:22;8.90;98.20
48206;DHT22;33995;48.202;16.260;2023-04-03T09:01:19;8.60;97.80
48206;DHT22;33995;48.202;16.260;2023-04-03T09:03:51;8.60;97.30
48206;DHT22;33995;48.202;16.260;2023-04-03T09:06:25;8.80;97.20
48206;DHT22;33995;48.202;16.260;2023-04-03T09:21:19;8.00;96.90
48206;DHT22;33995;48.202;16.260;2023-04-03T09:23:57;7.90;97.30
48206;DHT22;33995;48.202;16.260;2023-04-03T09:26:48;7.70;97.70
48206;DHT22;33995;48.202;16.260;2023-04-03T09:29:24;7.90;97.90
48206;DHT22;33995;48.202;16.260;2023-04-03T09:32:02;7.80;97.20
48206;DHT22;33995;48.202;16.260;2023-04-03T09:34:37;7.20;96.50
48206;DHT22;33995;48.202;16.260;2023-04-03T09:37:34;7.30;97.00
48206;DHT22;33995;48.202;16.260;2023-04-03T09:46:32;7.60;95.30
48206;DHT22;33995;48.202;16.260;2023-04-03T09:49:08;7.60;95.60
48206;DHT22;33995;48.202;16.260;2023-04-03T09:51:43;7.80;95.60
48206;DHT22;33995;48.202;16.260;2023-04-03T09:54:34;8.10;95.30
48206;DHT22;33995;48.202;16.260;2023-04-03T09:57:13;8.50;94.90
48206;DHT22;33995;48.202;16.260;2023-04-03T10:00:03;8.70;95.10
48206;DHT22;33995;48.202;16.260;2023-04-03T10:02:53;8.50;93.70
48206;DHT22;33995;48.202;16.260;2023-04-03T10:08:19;8.30;93.50
48206;DHT22;33995;48.202;16.260;2023-04-03T10:11:17;8.30;93.40
48206;DHT22;33995;48.202;16.260;2023-04-03T10:13:56;8.10;92.90
48206;DHT22;33995;48.202;16.260;2023-04-03T10:16:41;7.40;93.00
48206;DHT22;33995;48.202;16.260;2023-04-03T10:19:40;7.60;93.60
48206;DHT22;33995;48.202;16.260;2023-04-03T10:22:42;7.30;93.60
48206;DHT22;33995;48.202;16.260;2023-04-03T10:25:39;7.10;94.20
48206;DHT22;33995;48.202;16.260;2023-04-03T10:28:17;7.40;94.40
48206;DHT22;33995;48.202;16.260;2023-04-03T10:31:03;7.60;94.30
48206;DHT22;33995;48.202;16.260;2023-04-03T10:33:52;7.60;94.20
48206;DHT22;33995;48.202;16.260;2023-04-03T10:42:46;7.50;93.20
48206;DHT22;33995;48.202;16.260;2023-04-03T10:45:52;7.30;93.80
48206;DHT22;33995;48.202;16.260;2023-04-03T10:48:45;7.40;94.20
48206;DHT22;33995;48.202;16.260;2023-04-03T10:55:15;7.30;94.40
48206;DHT22;33995;48.202;16.260;2023-04-03T10:57:47;7.40;93.70
48206;DHT22;33995;48.202;16.260;2023-04-03T11:00:25;7.40;93.90
48206;DHT22;33995;48.202;16.260;2023-04-03T11:03:05;8.00;94.40
48206;DHT22;33995;48.202;16.260;2023-04-03T11:05:43;8.10;93.80
48206;DHT22;33995;48.202;16.260;2023-04-03T11:11:30;7.60;93.30
48206;DHT22;33995;48.202;16.260;2023-04-03T11:14:26;7.70;94.10
48206;DHT22;33995;48.202;16.260;2023-04-03T11:23:01;8.50;92.60
48206;DHT22;33995;48.202;16.260;2023-04-03T11:25:35;8.50;92.40
48206;DHT22;33995;48.202;16.260;2023-04-03T11:28:14;8.50;91.90
48206;DHT22;33995;48.202;16.260;2023-04-03T11:37:30;7.70;90.60
48206;DHT22;33995;48.202;16.260;2023-04-03T11:40:24;7.80;91.60
48206;DHT22;33995;48.202;16.260;2023-04-03T11:43:06;8.10;91.60
48206;DHT22;33995;48.202;16.260;2023-04-03T11:48:57;8.40;91.50
48206;DHT22;33995;48.202;16.260;2023-04-03T11:51:40;8.60;91.10
48206;DHT22;33995;48.202;16.260;2023-04-03T11:54:43;8.30;90.30
48206;DHT22;33995;48.202;16.260;2023-04-03T12:07:14;8.80;90.80
48206;DHT22;33995;48.202;16.260;2023-04-03T12:12:39;8.80;89.00
48206;DHT22;33995;48.202;16.260;2023-04-03T12:21:15;7.50;88.90
48206;DHT22;33995;48.202;16.260;2023-04-03T12:29:34;7.50;88.70
48206;DHT22;33995;48.202;16.260;2023-04-03T12:41:23;7.20;90.20
48206;DHT22;33995;48.202;16.260;2023-04-03T12:47:34;7.30;89.80
48206;DHT22;33995;48.202;16.260;2023-04-03T12:53:23;7.20;90.10
48206;DHT22;33995;48.202;16.260;2023-04-03T12:56:19;7.10;90.10
48206;DHT22;33995;48.202;16.260;2023-04-03T12:58:54;7.20;90.00
48206;DHT22;33995;48.202;16.260;2023-04-03T13:01:27;7.20;90.10
48206;DHT22;33995;48.202;16.260;2023-04-03T13:03:59;7.40;89.60
48206;DHT22;33995;48.202;16.260;2023-04-03T13:06:43;7.60;87.80
48206;DHT22;33995;48.202;16.260;2023-04-03T13:09:31;8.10;89.10
48206;DHT22;33995;48.202;16.260;2023-04-03T13:12:17;7.80;86.80
48206;DHT22;33995;48.202;16.260;2023-04-03T13:15:01;7.30;86.70
48206;DHT22;33995;48.202;16.260;2023-04-03T13:17:40;7.50;85.90
48206;DHT22;33995;48.202;16.260;2023-04-03T13:20:30;7.50;85.10
48206;DHT22;33995;48.202;16.260;2023-04-03T13:23:07;7.80;85.60
48206;DHT22;33995;48.202;16.260;2023-04-03T13:25:43;7.60;85.20
48206;DHT22;33995;48.202;16.260;2023-04-03T13:28:23;7.30;86.10
48206;DHT22;33995;48.202;16.260;2023-04-03T13:31:26;7.40;88.10
48206;DHT22;33995;48.202;16.260;2023-04-03T13:34:17;7.80;86.00
48206;DHT22;33995;48.202;16.260;2023-04-03T13:37:00;7.70;86.60
48206;DHT22;33995;48.202;16.260;2023-04-03T13:39:32;8.30;86.90
48206;DHT22;33995;48.202;16.260;2023-04-03T13:42:17;8.90;86.00
48206;DHT22;33995;48.202;16.260;2023-04-03T13:45:10;8.60;82.90
48206;DHT22;33995;48.202;16.260;2023-04-03T13:47:42;8.50;84.00
48206;DHT22;33995;48.202;16.260;2023-04-03T14:04:57;8.20;86.40
48206;DHT22;33995;48.202;16.260;2023-04-03T14:07:40;8.30;86.10
48206;DHT22;33995;48.202;16.260;2023-04-03T14:10:12;8.10;87.30
48206;DHT22;33995;48.202;16.260;2023-04-03T14:12:44;8.20;87.80
48206;DHT22;33995;48.202;16.260;2023-04-03T14:15:26;7.80;86.80
48206;DHT22;33995;48.202;16.260;2023-04-03T14:17:58;7.90;87.00
48206;DHT22;33995;48.202;16.260;2023-04-03T14:20:33;8.00;86.40
48206;DHT22;33995;48.202;16.260;2023-04-03T14:23:05;8.00;86.40
48206;DHT22;33995;48.202;16.260;2023-04-03T14:25:42;7.90;86.30
48206;DHT22;33995;48.202;16.260;2023-04-03T14:28:22;7.90;86.00
48206;DHT22;33995;48.202;16.260;2023-04-03T14:30:51;7.90;86.50
48206;DHT22;33995;48.202;16.260;2023-04-03T14:33:23;7.90;88.10
48206;DHT22;33995;48.202;16.260;2023-04-03T14:35:54;8.00;87.00
48206;DHT22;33995;48.202;16.260;2023-04-03T14:38:28;7.50;87.60
48206;DHT22;33995;48.202;16.260;2023-04-03T14:41:00;7.70;87.90
48206;DHT22;33995;48.202;16.260;2023-04-03T14:43:44;7.60;88.30
48206;DHT22;33995;48.202;16.260;2023-04-03T14:46:26;7.40;88.80
48206;DHT22;33995;48.202;16.260;2023-04-03T14:49:19;7.70;90.00
48206;DHT22;33995;48.202;16.260;2023-04-03T14:51:49;7.60;89.30
48206;DHT22;33995;48.202;16.260;2023-04-03T14:54:22;7.50;87.70
48206;DHT22;33995;48.202;16.260;2023-04-03T14:56:59;7.40;88.50
48206;DHT22;33995;48.202;16.260;2023-04-03T14:59:28;7.50;88.60
48206;DHT22;33995;48.202;16.260;2023-04-03T15:01:56;7.50;88.10
48206;DHT22;33995;48.202;16.260;2023-04-03T15:04:29;7.40;88.70
48206;DHT22;33995;48.202;16.260;2023-04-03T15:07:00;7.30;89.70
48206;DHT22;33995;48.202;16.260;2023-04-03T15:09:31;7.20;88.60
48206;DHT22;33995;48.202;16.260;2023-04-03T15:12:03;7.10;88.80
48206;DHT22;33995;48.202;16.260;2023-04-03T15:14:32;7.00;88.50
48206;DHT22;33995;48.202;16.260;2023-04-03T15:17:17;7.00;88.70
48206;DHT22;33995;48.202;16.260;2023-04-03T15:19:51;6.80;89.30
48206;DHT22;33995;48.202;16.260;2023-04-03T15:22:22;7.00;90.10
48206;DHT22;33995;48.202;16.260;2023-04-03T15:24:50;7.10;89.90
48206;DHT22;33995;48.202;16.260;2023-04-03T15:27:20;7.20;90.00
48206;DHT22;33995;48.202;16.260;2023-04-03T15:29:52;7.20;88.90
48206;DHT22;33995;48.202;16.260;2023-04-03T15:32:26;7.10;88.90
48206;DHT22;33995;48.202;16.260;2023-04-03T15:35:01;7.30;89.40
48206;DHT22;33995;48.202;16.260;2023-04-03T15:37:32;7.40;88.00
48206;DHT22;33995;48.202;16.260;2023-04-03T15:40:07;7.40;88.60
48206;DHT22;33995;48.202;16.260;2023-04-03T15:42:48;7.50;88.70
48206;DHT22;33995;48.202;16.260;2023-04-03T15:45:22;7.30;86.60
48206;DHT22;33995;48.202;16.260;2023-04-03T15:47:51;7.00;87.00
48206;DHT22;33995;48.202;16.260;2023-04-03T15:50:22;7.10;87.50
48206;DHT22;33995;48.202;16.260;2023-04-03T15:52:54;7.10;88.10
48206;DHT22;33995;48.202;16.260;2023-04-03T15:55:28;7.10;87.20
48206;DHT22;33995;48.202;16.260;2023-04-03T15:57:59;6.80;86.90
48206;DHT22;33995;48.202;16.260;2023-04-03T16:00:32;6.90;87.50
48206;DHT22;33995;48.202;16.260;2023-04-03T16:03:16;6.80;87.50
48206;DHT22;33995;48.202;16.260;2023-04-03T16:05:46;7.00;87.80
48206;DHT22;33995;48.202;16.260;2023-04-03T16:08:18;6.90;87.30
48206;DHT22;33995;48.202;16.260;2023-04-03T16:10:47;6.60;87.70
48206;DHT22;33995;48.202;16.260;2023-04-03T16:13:16;6.60;88.00
48206;DHT22;33995;48.202;16.260;2023-04-03T16:15:47;6.60;87.00
48206;DHT22;33995;48.202;16.260;2023-04-03T16:18:21;6.50;87.50
48206;DHT22;33995;48.202;16.260;2023-04-03T16:20:55;6.30;86.30
48206;DHT22;33995;48.202;16.260;2023-04-03T16:23:23;6.20;86.80
48206;DHT22;33995;48.202;16.260;2023-04-03T16:25:57;6.40;88.60
48206;DHT22;33995;48.202;16.260;2023-04-03T16:28:27;6.50;86.90
48206;DHT22;33995;48.202;16.260;2023-04-03T16:31:02;6.60;87.20
48206;DHT22;33995;48.202;16.260;2023-04-03T16:33:34;6.40;87.10
48206;DHT22;33995;48.202;16.260;2023-04-03T16:36:07;6.50;88.10
48206;DHT22;33995;48.202;16.260;2023-04-03T16:38:36;6.40;88.10
48206;DHT22;33995;48.202;16.260;2023-04-03T16:41:07;6.30;88.20
48206;DHT22;33995;48.202;16.260;2023-04-03T16:43:39;6.30;88.70
48206;DHT22;33995;48.202;16.260;2023-04-03T16:46:16;6.30;88.30
48206;DHT22;33995;48.202;16.260;2023-04-03T16:48:46;6.30;88.10
48206;DHT22;33995;48.202;16.260;2023-04-03T16:51:18;6.30;88.30
48206;DHT22;33995;48.202;16.260;2023-04-03T16:53:47;6.10;88.60
48206;DHT22;33995;48.202;16.260;2023-04-03T16:56:22;6.10;88.90
48206;DHT22;33995;48.202;16.260;2023-04-03T16:58:53;6.20;88.70
48206;DHT22;33995;48.202;16.260;2023-04-03T17:01:22;6.20;88.40
48206;DHT22;33995;48.202;16.260;2023-04-03T17:03:51;6.10;88.40
48206;DHT22;33995;48.202;16.260;2023-04-03T17:06:24;6.20;89.60
48206;DHT22;33995;48.202;16.260;2023-04-03T17:08:56;6.20;89.20
48206;DHT22;33995;48.202;16.260;2023-04-03T17:11:29;6.10;88.80
48206;DHT22;33995;48.202;16.260;2023-04-03T17:13:57;6.20;89.60
48206;DHT22;33995;48.202;16.260;2023-04-03T17:16:27;6.30;89.10
48206;DHT22;33995;48.202;16.260;2023-04-03T17:18:56;6.20;89.50
48206;DHT22;33995;48.202;16.260;2023-04-03T17:21:35;6.30;89.70
48206;DHT22;33995;48.202;16.260;2023-04-03T17:24:11;6.30;88.70
48206;DHT22;33995;48.202;16.260;2023-04-03T17:26:43;6.20;89.20
48206;DHT22;33995;48.202;16.260;2023-04-03T17:29:14;6.30;90.00
48206;DHT22;33995;48.202;16.260;2023-04-03T17:31:49;6.20;88.40
48206;DHT22;33995;48.202;16.260;2023-04-03T17:34:19;6.00;88.90
48206;DHT22;33995;48.202;16.260;2023-04-03T17:36:49;6.00;89.50
48206;DHT22;33995;48.202;16.260;2023-04-03T17:39:21;6.10;89.20
48206;DHT22;33995;48.202;16.260;2023-04-03T17:41:50;6.00;89.60
48206;DHT22;33995;48.202;16.260;2023-04-03T17:44:25;6.10;90.20
48206;DHT22;33995;48.202;16.260;2023-04-03T17:46:58;6.20;89.60
48206;DHT22;33995;48.202;16.260;2023-04-03T17:49:29;6.20;90.00
48206;DHT22;33995;48.202;16.260;2023-04-03T17:52:05;6.20;89.50
48206;DHT22;33995;48.202;16.260;2023-04-03T17:54:35;6.20;89.50
48206;DHT22;33995;48.202;16.260;2023-04-03T17:57:09;6.20;90.20
48206;DHT22;33995;48.202;16.260;2023-04-03T17:59:38;5.90;90.00
48206;DHT22;33995;48.202;16.260;2023-04-03T18:02:10;6.00;90.30
48206;DHT22;33995;48.202;16.260;2023-04-03T18:04:53;5.90;90.20
48206;DHT22;33995;48.202;16.260;2023-04-03T18:07:27;6.10;90.40
48206;DHT22;33995;48.202;16.260;2023-04-03T18:10:11;6.20;90.40